sensor_id;sensor_type;location;lat;lon;timestamp;temperature;humidity
16076;DHT22;8142;48.242;11.644;2023-04-01T00:02:07;9.40;99.90
16076;DHT22;8142;48.242;11.644;2023-04-01T00:04:33;9.30;99.90
16076;DHT22;8142;48.242;11.644;2023-04-01T00:06:59;9.20;99.90
16076;DHT22;8142;48.242;11.644;2023-04-01T00:09:25;9.20;99.90
16076;DHT22;8142;48.242;11.644;2023-04-01T00:11:51;9.20;99.90
16076;DHT22;8142;48.242;11.644;2023-04-01T00:14:17;9.10;99.90
16076;DHT22;8142;48.242;11.644;2023-04-01T00:16:43;9.20;99.90
16076;DHT22;8142;48.242;11.644;2023-04-01T00:19:09;9.30;99.90
16076;DHT22;8142;48.242;11.644;2023-04-01T00:21:35;9.30;99.90
16076;DHT22;8142;48.242;11.644;2023-04-01T00:24:02;9.20;99.90
16076;DHT22;8142;48.242;11.644;2023-04-01T00:26:28;9.30;99.90
16076;DHT22;8142;48.242;11.644;2023-04-01T00:28:54;9.20;99.90
16076;DHT22;8142;48.242;11.644;2023-04-01T00:31:20;9.10;99.90
16076;DHT22;8142;48.242;11.644;2023-04-01T00:33:46;9.00;99.90
16076;DHT22;8142;48.242;11.644;2023-04-01T00:36:17;9.00;99.90
16076;DHT22;8142;48.242;11.644;2023-04-01T00:38:44;8.90;99.90
16076;DHT22;8142;48.242;11.644;2023-04-01T00:41:11;8.80;99.90
16076;DHT22;8142;48.242;11.644;2023-04-01T00:43:49;8.80;99.90
16076;DHT22;8142;48.242;11.644;2023-04-01T00:46:15;8.80;99.90
16076;DHT22;8142;48.242;11.644;2023-04-01T00:48:45;9.10;99.90
16076;DHT22;8142;48.242;11.644;2023-04-01T00:51:18;9.20;99.90
16076;DHT22;8142;48.242;11.644;2023-04-01T00:53:48;9.10;99.90
16076;DHT22;8142;48.242;11.644;2023-04-01T00:56:22;9.00;99.90
16076;DHT22;8142;48.242;11.644;2023-04-01T00:58:54;8.90;99.90
16076;DHT22;8142;48.242;11.644;2023-04-01T01:01:22;8.90;99.90
16076;DHT22;8142;48.242;11.644;2023-04-01T01:03:49;8.80;99.90
16076;DHT22;8142;48.242;11.644;2023-04-01T01:09:06;8.70;99.90
16076;DHT22;8142;48.242;11.644;2023-04-01T01:11:48;8.70;99.90
16076;DHT22;8142;48.242;11.644;2023-04-01T01:16:58;8.70;99.90
16076;DHT22;8142;48.242;11.644;2023-04-01T01:22:42;8.90;99.90
16076;DHT22;8142;48.242;11.644;2023-04-01T01:31:16;8.80;99.90
16076;DHT22;8142;48.242;11.644;2023-04-01T01:36:40;8.70;99.90
16076;DHT22;8142;48.242;11.644;2023-04-01T01:39:09;8.70;99.90
16076;DHT22;8142;48.242;11.644;2023-04-01T01:41:36;8.60;99.90
16076;DHT22;8142;48.242;11.644;2023-04-01T01:44:07;8.60;99.90
16076;DHT22;8142;48.242;11.644;2023-04-01T01:46:34;8.60;99.90
16076;DHT22;8142;48.242;11.644;2023-04-01T01:49:02;8.80;99.90
16076;DHT22;8142;48.242;11.644;2023-04-01T01:51:29;8.90;99.90
16076;DHT22;8142;48.242;11.644;2023-04-01T01:53:55;8.80;99.90
16076;DHT22;8142;48.242;11.644;2023-04-01T01:56:23;8.80;99.90
16076;DHT22;8142;48.242;11.644;2023-04-01T01:58:56;8.70;99.90
16076;DHT22;8142;48.242;11.644;2023-04-01T02:01:27;8.70;99.90
16076;DHT22;8142;48.242;11.644;2023-04-01T02:03:54;8.60;99.90
16076;DHT22;8142;48.242;11.644;2023-04-01T02:06:28;8.60;99.90
16076;DHT22;8142;48.242;11.644;2023-04-01T02:09:01;8.60;99.90
16076;DHT22;8142;48.242;11.644;2023-04-01T02:11:33;8.60;99.90
16076;DHT22;8142;48.242;11.644;2023-04-01T02:14:09;8.60;99.90
16076;DHT22;8142;48.242;11.644;2023-04-01T02:16:57;8.60;99.90
16076;DHT22;8142;48.242;11.644;2023-04-01T02:19:34;8.90;99.90
16076;DHT22;8142;48.242;11.644;2023-04-01T02:22:03;9.00;99.90
16076;DHT22;8142;48.242;11.644;2023-04-01T02:24:31;9.00;99.90
16076;DHT22;8142;48.242;11.644;2023-04-01T02:26:59;8.80;99.90
16076;DHT22;8142;48.242;11.644;2023-04-01T02:29:25;8.80;99.90
16076;DHT22;8142;48.242;11.644;2023-04-01T02:31:52;8.80;99.90
16076;DHT22;8142;48.242;11.644;2023-04-01T02:34:19;8.70;99.90
16076;DHT22;8142;48.242;11.644;2023-04-01T02:36:47;8.80;99.90
16076;DHT22;8142;48.242;11.644;2023-04-01T02:39:13;8.70;99.90
16076;DHT22;8142;48.242;11.644;2023-04-01T02:41:41;8.60;99.90
16076;DHT22;8142;48.242;11.644;2023-04-01T02:44:08;8.70;99.90
16076;DHT22;8142;48.242;11.644;2023-04-01T02:46:34;8.70;99.90
16076;DHT22;8142;48.242;11.644;2023-04-01T02:49:00;8.90;99.90
16076;DHT22;8142;48.242;11.644;2023-04-01T02:51:26;8.90;99.90
16076;DHT22;8142;48.242;11.644;2023-04-01T02:53:52;8.90;99.90
16076;DHT22;8142;48.242;11.644;2023-04-01T02:56:18;8.80;99.90
16076;DHT22;8142;48.242;11.644;2023-04-01T02:58:45;8.80;99.90
16076;DHT22;8142;48.242;11.644;2023-04-01T03:01:11;8.80;99.90
16076;DHT22;8142;48.242;11.644;2023-04-01T03:03:37;8.70;99.90
16076;DHT22;8142;48.242;11.644;2023-04-01T03:06:07;8.70;99.90
16076;DHT22;8142;48.242;11.644;2023-04-01T03:08:34;8.60;99.90
16076;DHT22;8142;48.242;11.644;2023-04-01T03:11:00;8.60;99.90
16076;DHT22;8142;48.242;11.644;2023-04-01T03:13:26;8.60;99.90
16076;DHT22;8142;48.242;11.644;2023-04-01T03:15:52;8.60;99.90
16076;DHT22;8142;48.242;11.644;2023-04-01T03:18:19;8.70;99.90
16076;DHT22;8142;48.242;11.644;2023-04-01T03:20:45;8.80;99.90
16076;DHT22;8142;48.242;11.644;2023-04-01T03:23:11;8.80;99.90
16076;DHT22;8142;48.242;11.644;2023-04-01T03:25:37;8.80;99.90
16076;DHT22;8142;48.242;11.644;2023-04-01T03:28:03;8.70;99.90
16076;DHT22;8142;48.242;11.644;2023-04-01T03:30:29;8.60;99.90
16076;DHT22;8142;48.242;11.644;2023-04-01T03:33:00;8.60;99.90
16076;DHT22;8142;48.242;11.644;2023-04-01T03:35:26;8.60;99.90
16076;DHT22;8142;48.242;11.644;2023-04-01T03:37:53;8.50;99.90
16076;DHT22;8142;48.242;11.644;2023-04-01T03:40:20;8.50;99.90
16076;DHT22;8142;48.242;11.644;2023-04-01T03:42:46;8.50;99.90
16076;DHT22;8142;48.242;11.644;2023-04-01T03:45:12;8.40;99.90
16076;DHT22;8142;48.242;11.644;2023-04-01T03:47:39;8.50;99.90
16076;DHT22;8142;48.242;11.644;2023-04-01T03:50:06;8.70;99.90
16076;DHT22;8142;48.242;11.644;2023-04-01T03:52:33;8.60;99.90
16076;DHT22;8142;48.242;11.644;2023-04-01T03:54:59;8.60;99.90
16076;DHT22;8142;48.242;11.644;2023-04-01T03:57:25;8.60;99.90
16076;DHT22;8142;48.242;11.644;2023-04-01T03:59:51;8.50;99.90
16076;DHT22;8142;48.242;11.644;2023-04-01T04:02:18;8.50;99.90
16076;DHT22;8142;48.242;11.644;2023-04-01T04:04:43;8.40;99.90
16076;DHT22;8142;48.242;11.644;2023-04-01T04:07:10;8.30;99.90
16076;DHT22;8142;48.242;11.644;2023-04-01T04:09:36;8.20;99.90
16076;DHT22;8142;48.242;11.644;2023-04-01T04:12:02;8.10;99.90
16076;DHT22;8142;48.242;11.644;2023-04-01T04:14:27;8.00;99.90
16076;DHT22;8142;48.242;11.644;2023-04-01T04:16:53;7.90;99.90
16076;DHT22;8142;48.242;11.644;2023-04-01T04:19:19;7.80;99.90
16076;DHT22;8142;48.242;11.644;2023-04-01T04:21:45;7.80;99.90
16076;DHT22;8142;48.242;11.644;2023-04-01T04:24:11;7.70;99.90
16076;DHT22;8142;48.242;11.644;2023-04-01T04:26:36;7.70;99.90
16076;DHT22;8142;48.242;11.644;2023-04-01T04:29:02;7.60;99.90
16076;DHT22;8142;48.242;11.644;2023-04-01T04:31:28;7.60;99.90
16076;DHT22;8142;48.242;11.644;2023-04-01T04:33:54;7.60;99.90
16076;DHT22;8142;48.242;11.644;2023-04-01T04:36:20;7.60;99.90
16076;DHT22;8142;48.242;11.644;2023-04-01T04:38:46;7.50;99.90
16076;DHT22;8142;48.242;11.644;2023-04-01T04:41:14;7.50;99.90
16076;DHT22;8142;48.242;11.644;2023-04-01T04:43:41;7.50;99.90
16076;DHT22;8142;48.242;11.644;2023-04-01T04:46:08;7.50;99.90
16076;DHT22;8142;48.242;11.644;2023-04-01T04:48:34;7.50;99.90
16076;DHT22;8142;48.242;11.644;2023-04-01T04:51:01;7.50;99.90
16076;DHT22;8142;48.242;11.644;2023-04-01T04:53:27;7.50;99.90
16076;DHT22;8142;48.242;11.644;2023-04-01T04:55:53;7.50;99.90
16076;DHT22;8142;48.242;11.644;2023-04-01T04:58:19;7.50;99.90
16076;DHT22;8142;48.242;11.644;2023-04-01T05:00:46;7.50;99.90
16076;DHT22;8142;48.242;11.644;2023-04-01T05:03:12;7.50;99.90
16076;DHT22;8142;48.242;11.644;2023-04-01T05:05:38;7.50;99.90
16076;DHT22;8142;48.242;11.644;2023-04-01T05:08:05;7.50;99.90
16076;DHT22;8142;48.242;11.644;2023-04-01T05:10:31;7.50;99.90
16076;DHT22;8142;48.242;11.644;2023-04-01T05:12:58;7.50;99.90
16076;DHT22;8142;48.242;11.644;2023-04-01T05:15:24;7.50;99.90
16076;DHT22;8142;48.242;11.644;2023-04-01T05:17:50;7.50;99.90
16076;DHT22;8142;48.242;11.644;2023-04-01T05:20:16;7.50;99.90
16076;DHT22;8142;48.242;11.644;2023-04-01T05:22:42;7.60;99.90
16076;DHT22;8142;48.242;11.644;2023-04-01T05:25:08;7.60;99.90
16076;DHT22;8142;48.242;11.644;2023-04-01T05:27:35;7.60;99.90
16076;DHT22;8142;48.242;11.644;2023-04-01T05:30:01;7.70;99.90
16076;DHT22;8142;48.242;11.644;2023-04-01T05:32:27;7.80;99.90
16076;DHT22;8142;48.242;11.644;2023-04-01T05:34:54;7.80;99.90
16076;DHT22;8142;48.242;11.644;2023-04-01T05:37:20;8.00;99.90
16076;DHT22;8142;48.242;11.644;2023-04-01T05:39:47;8.00;99.90
16076;DHT22;8142;48.242;11.644;2023-04-01T05:42:13;8.10;99.90
16076;DHT22;8142;48.242;11.644;2023-04-01T05:44:39;8.10;99.90
16076;DHT22;8142;48.242;11.644;2023-04-01T05:47:06;8.20;99.90
16076;DHT22;8142;48.242;11.644;2023-04-01T05:49:33;8.20;99.90
16076;DHT22;8142;48.242;11.644;2023-04-01T05:52:00;8.30;99.90
16076;DHT22;8142;48.242;11.644;2023-04-01T05:54:26;8.30;99.90
16076;DHT22;8142;48.242;11.644;2023-04-01T05:56:52;8.40;99.90
16076;DHT22;8142;48.242;11.644;2023-04-01T05:59:19;8.40;99.90
16076;DHT22;8142;48.242;11.644;2023-04-01T06:01:45;8.50;99.90
16076;DHT22;8142;48.242;11.644;2023-04-01T06:04:16;8.60;99.90
16076;DHT22;8142;48.242;11.644;2023-04-01T06:06:43;8.70;99.90
16076;DHT22;8142;48.242;11.644;2023-04-01T06:09:19;8.80;99.90
16076;DHT22;8142;48.242;11.644;2023-04-01T06:20:30;9.00;99.90
16076;DHT22;8142;48.242;11.644;2023-04-01T06:23:18;9.00;99.90
16076;DHT22;8142;48.242;11.644;2023-04-01T06:28:56;9.00;99.90
16076;DHT22;8142;48.242;11.644;2023-04-01T06:31:45;9.00;99.90
16076;DHT22;8142;48.242;11.644;2023-04-01T06:37:43;9.10;99.90
16076;DHT22;8142;48.242;11.644;2023-04-01T06:43:58;9.30;99.90
16076;DHT22;8142;48.242;11.644;2023-04-01T06:46:45;9.40;99.90
16076;DHT22;8142;48.242;11.644;2023-04-01T06:49:48;9.50;99.90
16076;DHT22;8142;48.242;11.644;2023-04-01T06:55:32;9.60;99.90
16076;DHT22;8142;48.242;11.644;2023-04-01T06:58:06;9.70;99.90
16076;DHT22;8142;48.242;11.644;2023-04-01T07:00:39;9.80;99.90
16076;DHT22;8142;48.242;11.644;2023-04-01T07:03:26;9.80;99.90
16076;DHT22;8142;48.242;11.644;2023-04-01T07:06:00;9.80;99.90
16076;DHT22;8142;48.242;11.644;2023-04-01T07:08:29;9.80;99.90
16076;DHT22;8142;48.242;11.644;2023-04-01T07:11:06;9.90;99.90
16076;DHT22;8142;48.242;11.644;2023-04-01T07:14:22;9.90;99.90
16076;DHT22;8142;48.242;11.644;2023-04-01T07:16:41;10.00;99.90
16076;DHT22;8142;48.242;11.644;2023-04-01T07:19:17;9.90;99.90
16076;DHT22;8142;48.242;11.644;2023-04-01T07:21:56;9.90;99.90
16076;DHT22;8142;48.242;11.644;2023-04-01T07:24:27;9.90;99.90
16076;DHT22;8142;48.242;11.644;2023-04-01T07:26:57;9.90;99.90
16076;DHT22;8142;48.242;11.644;2023-04-01T07:29:25;9.90;99.90
16076;DHT22;8142;48.242;11.644;2023-04-01T07:37:17;9.90;99.90
16076;DHT22;8142;48.242;11.644;2023-04-01T07:42:45;9.90;99.90
16076;DHT22;8142;48.242;11.644;2023-04-01T07:48:26;9.90;99.90
16076;DHT22;8142;48.242;11.644;2023-04-01T07:51:27;9.90;99.90
16076;DHT22;8142;48.242;11.644;2023-04-01T07:54:01;10.00;99.90
16076;DHT22;8142;48.242;11.644;2023-04-01T07:56:51;10.00;99.90
16076;DHT22;8142;48.242;11.644;2023-04-01T07:59:37;10.00;99.90
16076;DHT22;8142;48.242;11.644;2023-04-01T08:05:27;10.10;99.90
16076;DHT22;8142;48.242;11.644;2023-04-01T08:10:50;10.10;99.90
16076;DHT22;8142;48.242;11.644;2023-04-01T08:16:48;9.90;99.90
16076;DHT22;8142;48.242;11.644;2023-04-01T08:22:28;9.80;99.90
16076;DHT22;8142;48.242;11.644;2023-04-01T08:24:57;9.80;99.90
16076;DHT22;8142;48.242;11.644;2023-04-01T08:27:34;9.80;99.90
16076;DHT22;8142;48.242;11.644;2023-04-01T08:30:06;9.80;99.90
16076;DHT22;8142;48.242;11.644;2023-04-01T08:32:44;9.80;99.90
16076;DHT22;8142;48.242;11.644;2023-04-01T08:37:59;9.80;99.90
16076;DHT22;8142;48.242;11.644;2023-04-01T08:40:55;9.80;99.90
16076;DHT22;8142;48.242;11.644;2023-04-01T08:46:50;10.00;99.90
16076;DHT22;8142;48.242;11.644;2023-04-01T08:52:36;10.20;99.90
16076;DHT22;8142;48.242;11.644;2023-04-01T09:06:26;10.90;99.90
16076;DHT22;8142;48.242;11.644;2023-04-01T09:14:26;11.10;99.90
16076;DHT22;8142;48.242;11.644;2023-04-01T09:30:46;11.50;99.90
16076;DHT22;8142;48.242;11.644;2023-04-01T09:33:39;11.50;99.90
16076;DHT22;8142;48.242;11.644;2023-04-01T09:42:43;11.60;99.90
16076;DHT22;8142;48.242;11.644;2023-04-01T09:44:52;11.60;99.90
16076;DHT22;8142;48.242;11.644;2023-04-01T10:04:07;11.70;99.90
16076;DHT22;8142;48.242;11.644;2023-04-01T10:18:56;11.90;99.90
16076;DHT22;8142;48.242;11.644;2023-04-01T10:22:04;11.80;99.90
16076;DHT22;8142;48.242;11.644;2023-04-01T10:27:48;11.90;99.90
16076;DHT22;8142;48.242;11.644;2023-04-01T10:38:59;11.90;99.90
16076;DHT22;8142;48.242;11.644;2023-04-01T10:56:15;12.10;99.90
16076;DHT22;8142;48.242;11.644;2023-04-01T11:01:57;12.00;99.90
16076;DHT22;8142;48.242;11.644;2023-04-01T11:26:45;11.40;99.90
16076;DHT22;8142;48.242;11.644;2023-04-01T11:29:43;11.30;99.90
16076;DHT22;8142;48.242;11.644;2023-04-01T11:38:24;11.20;99.90
16076;DHT22;8142;48.242;11.644;2023-04-01T11:46:46;11.00;99.90
16076;DHT22;8142;48.242;11.644;2023-04-01T11:49:45;10.90;99.90
16076;DHT22;8142;48.242;11.644;2023-04-01T11:58:31;10.70;99.90
16076;DHT22;8142;48.242;11.644;2023-04-01T12:01:17;10.60;99.90
16076;DHT22;8142;48.242;11.644;2023-04-01T12:09:40;10.30;99.90
16076;DHT22;8142;48.242;11.644;2023-04-01T12:17:49;9.90;99.90
16076;DHT22;8142;48.242;11.644;2023-04-01T12:20:43;9.80;99.90
16076;DHT22;8142;48.242;11.644;2023-04-01T12:29:19;9.70;99.90
16076;DHT22;8142;48.242;11.644;2023-04-01T12:32:03;9.70;99.90
16076;DHT22;8142;48.242;11.644;2023-04-01T12:40:36;9.60;99.90
16076;DHT22;8142;48.242;11.644;2023-04-01T12:56:42;9.60;99.90
16076;DHT22;8142;48.242;11.644;2023-04-01T13:02:24;9.60;99.90
16076;DHT22;8142;48.242;11.644;2023-04-01T13:05:14;9.80;99.90
16076;DHT22;8142;48.242;11.644;2023-04-01T13:07:58;9.60;99.90
16076;DHT22;8142;48.242;11.644;2023-04-01T13:16:29;9.50;99.90
16076;DHT22;8142;48.242;11.644;2023-04-01T13:24:14;9.50;99.90
16076;DHT22;8142;48.242;11.644;2023-04-01T13:26:58;9.50;99.90
16076;DHT22;8142;48.242;11.644;2023-04-01T13:29:36;9.50;99.90
16076;DHT22;8142;48.242;11.644;2023-04-01T13:43:15;9.50;99.90
16076;DHT22;8142;48.242;11.644;2023-04-01T13:59:57;9.60;99.90
16076;DHT22;8142;48.242;11.644;2023-04-01T14:13:56;9.70;99.90
16076;DHT22;8142;48.242;11.644;2023-04-01T14:16:51;9.70;99.90
16076;DHT22;8142;48.242;11.644;2023-04-01T14:19:27;9.70;99.90
16076;DHT22;8142;48.242;11.644;2023-04-01T14:22:38;9.70;99.90
16076;DHT22;8142;48.242;11.644;2023-04-01T14:28:03;9.70;99.90
16076;DHT22;8142;48.242;11.644;2023-04-01T14:50:23;9.60;99.90
16076;DHT22;8142;48.242;11.644;2023-04-01T14:52:59;9.60;99.90
16076;DHT22;8142;48.242;11.644;2023-04-01T14:58:20;9.60;99.90
16076;DHT22;8142;48.242;11.644;2023-04-01T15:03:33;9.70;99.90
16076;DHT22;8142;48.242;11.644;2023-04-01T15:25:22;9.80;99.90
16076;DHT22;8142;48.242;11.644;2023-04-01T15:28:06;9.80;99.90
16076;DHT22;8142;48.242;11.644;2023-04-01T15:31:10;9.80;99.90
16076;DHT22;8142;48.242;11.644;2023-04-01T15:45:31;9.80;99.90
16076;DHT22;8142;48.242;11.644;2023-04-01T15:51:02;9.80;99.90
16076;DHT22;8142;48.242;11.644;2023-04-01T15:56:43;10.20;99.90
16076;DHT22;8142;48.242;11.644;2023-04-01T16:02:34;10.10;99.90
16076;DHT22;8142;48.242;11.644;2023-04-01T16:08:17;10.00;99.90
16076;DHT22;8142;48.242;11.644;2023-04-01T16:10:56;10.00;99.90
16076;DHT22;8142;48.242;11.644;2023-04-01T16:21:52;9.90;99.90
16076;DHT22;8142;48.242;11.644;2023-04-01T16:24:46;9.90;99.90
16076;DHT22;8142;48.242;11.644;2023-04-01T16:27:24;9.90;99.90
16076;DHT22;8142;48.242;11.644;2023-04-01T16:30:00;9.90;99.90
16076;DHT22;8142;48.242;11.644;2023-04-01T16:32:37;9.80;99.90
16076;DHT22;8142;48.242;11.644;2023-04-01T16:35:10;9.80;99.90
16076;DHT22;8142;48.242;11.644;2023-04-01T16:37:47;9.70;99.90
16076;DHT22;8142;48.242;11.644;2023-04-01T16:40:37;9.80;99.90
16076;DHT22;8142;48.242;11.644;2023-04-01T16:48:14;10.00;99.90
16076;DHT22;8142;48.242;11.644;2023-04-01T16:50:55;9.90;99.90
16076;DHT22;8142;48.242;11.644;2023-04-01T16:58:37;9.70;99.90
16076;DHT22;8142;48.242;11.644;2023-04-01T17:01:06;9.70;99.90
16076;DHT22;8142;48.242;11.644;2023-04-01T17:03:44;9.60;99.90
16076;DHT22;8142;48.242;11.644;2023-04-01T17:09:30;9.50;99.90
16076;DHT22;8142;48.242;11.644;2023-04-01T17:12:30;9.50;99.90
16076;DHT22;8142;48.242;11.644;2023-04-01T17:23:29;9.40;99.90
16076;DHT22;8142;48.242;11.644;2023-04-01T17:26:09;9.40;99.90
16076;DHT22;8142;48.242;11.644;2023-04-01T17:28:50;9.40;99.90
16076;DHT22;8142;48.242;11.644;2023-04-01T17:34:39;9.40;99.90
16076;DHT22;8142;48.242;11.644;2023-04-01T17:43:52;9.30;99.90
16076;DHT22;8142;48.242;11.644;2023-04-01T17:46:42;9.40;99.90
16076;DHT22;8142;48.242;11.644;2023-04-01T17:52:30;9.40;99.90
16076;DHT22;8142;48.242;11.644;2023-04-01T17:55:29;9.40;99.90
16076;DHT22;8142;48.242;11.644;2023-04-01T18:00:46;9.50;99.90
16076;DHT22;8142;48.242;11.644;2023-04-01T18:08:59;9.50;99.90
16076;DHT22;8142;48.242;11.644;2023-04-01T18:14:34;9.60;99.90
16076;DHT22;8142;48.242;11.644;2023-04-01T18:20:16;9.70;99.90
16076;DHT22;8142;48.242;11.644;2023-04-01T18:23:30;9.70;99.90
16076;DHT22;8142;48.242;11.644;2023-04-01T18:26:35;9.70;99.90
16076;DHT22;8142;48.242;11.644;2023-04-01T18:32:23;9.70;99.90
16076;DHT22;8142;48.242;11.644;2023-04-01T18:35:03;9.70;99.90
16076;DHT22;8142;48.242;11.644;2023-04-01T18:37:52;9.70;99.90
16076;DHT22;8142;48.242;11.644;2023-04-01T18:40:29;9.70;99.90
16076;DHT22;8142;48.242;11.644;2023-04-01T18:45:46;9.70;99.90
16076;DHT22;8142;48.242;11.644;2023-04-01T18:54:05;9.70;99.90
16076;DHT22;8142;48.242;11.644;2023-04-01T18:56:38;9.70;99.90
16076;DHT22;8142;48.242;11.644;2023-04-01T18:59:25;9.70;99.90
16076;DHT22;8142;48.242;11.644;2023-04-01T19:10:20;9.60;99.90
16076;DHT22;8142;48.242;11.644;2023-04-01T19:21:11;9.70;99.90
16076;DHT22;8142;48.242;11.644;2023-04-01T19:31:55;9.80;99.90
16076;DHT22;8142;48.242;11.644;2023-04-01T19:40:13;9.70;99.90
16076;DHT22;8142;48.242;11.644;2023-04-01T19:46:01;9.70;99.90
16076;DHT22;8142;48.242;11.644;2023-04-01T19:48:34;9.70;99.90
16076;DHT22;8142;48.242;11.644;2023-04-01T19:51:19;9.90;99.90
16076;DHT22;8142;48.242;11.644;2023-04-01T19:54:16;9.90;99.90
16076;DHT22;8142;48.242;11.644;2023-04-01T19:59:45;9.80;99.90
16076;DHT22;8142;48.242;11.644;2023-04-01T20:02:34;9.80;99.90
16076;DHT22;8142;48.242;11.644;2023-04-01T20:07:59;9.90;99.90
16076;DHT22;8142;48.242;11.644;2023-04-01T20:10:34;10.10;99.90
16076;DHT22;8142;48.242;11.644;2023-04-01T20:15:47;10.10;99.90
16076;DHT22;8142;48.242;11.644;2023-04-01T20:18:33;10.00;99.90
16076;DHT22;8142;48.242;11.644;2023-04-01T20:23:39;10.10;99.90
16076;DHT22;8142;48.242;11.644;2023-04-01T20:26:14;10.00;99.90
16076;DHT22;8142;48.242;11.644;2023-04-01T20:28:54;9.90;99.90
16076;DHT22;8142;48.242;11.644;2023-04-01T20:31:30;9.80;99.90
16076;DHT22;8142;48.242;11.644;2023-04-01T20:42:56;9.60;99.90
16076;DHT22;8142;48.242;11.644;2023-04-01T20:45:54;9.50;99.90
16076;DHT22;8142;48.242;11.644;2023-04-01T20:50:57;9.60;99.90
16076;DHT22;8142;48.242;11.644;2023-04-01T20:53:36;9.60;99.90
16076;DHT22;8142;48.242;11.644;2023-04-01T20:56:29;9.50;99.90
16076;DHT22;8142;48.242;11.644;2023-04-01T21:13:37;9.30;99.90
16076;DHT22;8142;48.242;11.644;2023-04-01T21:19:08;9.30;99.90
16076;DHT22;8142;48.242;11.644;2023-04-01T21:29:39;9.40;99.90
16076;DHT22;8142;48.242;11.644;2023-04-01T21:38:51;9.30;99.90
16076;DHT22;8142;48.242;11.644;2023-04-01T21:44:20;9.20;99.90
16076;DHT22;8142;48.242;11.644;2023-04-01T21:47:24;9.20;99.90
16076;DHT22;8142;48.242;11.644;2023-04-01T21:56:11;9.30;99.90
16076;DHT22;8142;48.242;11.644;2023-04-01T21:59:12;9.30;99.90
16076;DHT22;8142;48.242;11.644;2023-04-01T22:07:19;9.20;99.90
16076;DHT22;8142;48.242;11.644;2023-04-01T22:09:52;9.10;99.90
16076;DHT22;8142;48.242;11.644;2023-04-01T22:12:35;9.00;99.90
16076;DHT22;8142;48.242;11.644;2023-04-01T22:17:53;9.00;99.90
16076;DHT22;8142;48.242;11.644;2023-04-01T22:31:05;9.20;99.90
16076;DHT22;8142;48.242;11.644;2023-04-01T22:33:42;9.20;99.90
16076;DHT22;8142;48.242;11.644;2023-04-01T22:39:09;9.10;99.90
16076;DHT22;8142;48.242;11.644;2023-04-01T22:41:49;9.10;99.90
16076;DHT22;8142;48.242;11.644;2023-04-01T22:44:39;9.10;99.90
16076;DHT22;8142;48.242;11.644;2023-04-01T22:49:50;9.10;99.90
16076;DHT22;8142;48.242;11.644;2023-04-01T22:52:50;9.30;99.90
16076;DHT22;8142;48.242;11.644;2023-04-01T22:55:28;9.20;99.90
16076;DHT22;8142;48.242;11.644;2023-04-01T22:58:00;9.20;99.90
16076;DHT22;8142;48.242;11.644;2023-04-01T23:00:36;9.20;99.90
16076;DHT22;8142;48.242;11.644;2023-04-01T23:03:16;9.10;99.90
16076;DHT22;8142;48.242;11.644;2023-04-01T23:05:52;9.10;99.90
16076;DHT22;8142;48.242;11.644;2023-04-01T23:11:26;9.00;99.90
16076;DHT22;8142;48.242;11.644;2023-04-01T23:16:39;8.90;99.90
16076;DHT22;8142;48.242;11.644;2023-04-01T23:19:22;8.90;99.90
16076;DHT22;8142;48.242;11.644;2023-04-01T23:21:58;9.00;99.90
16076;DHT22;8142;48.242;11.644;2023-04-01T23:24:38;9.10;99.90
16076;DHT22;8142;48.242;11.644;2023-04-01T23:27:16;9.00;99.90
16076;DHT22;8142;48.242;11.644;2023-04-01T23:29:44;8.90;99.90
16076;DHT22;8142;48.242;11.644;2023-04-01T23:32:15;8.90;99.90
16076;DHT22;8142;48.242;11.644;2023-04-01T23:34:47;8.80;99.90
16076;DHT22;8142;48.242;11.644;2023-04-01T23:37:16;8.70;99.90
16076;DHT22;8142;48.242;11.644;2023-04-01T23:39:46;8.80;99.90
16076;DHT22;8142;48.242;11.644;2023-04-01T23:42:19;8.70;99.90
16076;DHT22;8142;48.242;11.644;2023-04-01T23:44:49;8.80;99.90
16076;DHT22;8142;48.242;11.644;2023-04-01T23:47:31;8.70;99.90
16076;DHT22;8142;48.242;11.644;2023-04-01T23:50:01;8.80;99.90
16076;DHT22;8142;48.242;11.644;2023-04-01T23:52:34;9.00;99.90
16076;DHT22;8142;48.242;11.644;2023-04-01T23:57:37;8.90;99.90
